LTBI/ESK METAR and TAF weather

Enter ICAO airport designator
Station Type Date Time Source
LTBI METAR 2020/08/14 16:50 UTC NOAA

LTBI 141650Z 30007KT 270V340 CAVOK 23/09 Q1014 NOSIG RMK RWY08 30010KT


Station Type Date Time Source
LTBI Decoded METAR 2020/08/14 16:50 UTC NOAA

Eskisehir, Turkey (LTBI) 39-47N 030-34E 785M
Aug 14, 2020 - 12:50 PM EDT / 2020.08.14 1650 UTC
Wind: from the WNW (300 degrees) at 8 MPH (7 KT) (direction variable):0
Visibility: greater than 7 mile(s):0
Temperature: 73 F (23 C)
Dew Point: 48 F (9 C)
Relative Humidity: 40%
Pressure (altimeter): 29.94 in. Hg (1014 hPa)
ob: LTBI 141650Z 30007KT 270V340 CAVOK 23/09 Q1014 NOSIG RMK RWY08 30010KT
cycle: 17

Station Type Date Time Source
LTBI TAF 2012/05/11 09:09 UTC NOAA

TAF LTBI 110740Z 1109/1121 VRB02KT 6000 -SHRA BKN030 BKN090
TEMPO 1112/1116 33015KT 4000 -TSRA FEW025CB BKN030

Example: see airport list